sensor_id;sensor_type;location;lat;lon;timestamp;P1;durP1;ratioP1;P2;durP2;ratioP2
59734;SDS011;64362;45.620;4.920;2023-04-24T00:00:46;2.30;;;0.90;;
59734;SDS011;64362;45.620;4.920;2023-04-24T00:03:12;1.58;;;1.00;;
59734;SDS011;64362;45.620;4.920;2023-04-24T00:05:37;1.63;;;0.90;;
59734;SDS011;64362;45.620;4.920;2023-04-24T00:08:05;1.80;;;1.08;;
59734;SDS011;64362;45.620;4.920;2023-04-24T00:10:31;1.60;;;0.60;;
59734;SDS011;64362;45.620;4.920;2023-04-24T00:12:56;1.73;;;0.98;;
59734;SDS011;64362;45.620;4.920;2023-04-24T00:15:22;2.17;;;0.90;;
59734;SDS011;64362;45.620;4.920;2023-04-24T00:17:48;2.38;;;0.90;;
59734;SDS011;64362;45.620;4.920;2023-04-24T00:20:13;2.47;;;0.90;;
59734;SDS011;64362;45.620;4.920;2023-04-24T00:22:39;3.50;;;1.00;;
59734;SDS011;64362;45.620;4.920;2023-04-24T00:25:05;1.85;;;0.95;;
59734;SDS011;64362;45.620;4.920;2023-04-24T00:27:31;1.42;;;0.90;;
59734;SDS011;64362;45.620;4.920;2023-04-24T00:29:56;1.92;;;0.80;;
59734;SDS011;64362;45.620;4.920;2023-04-24T00:32:22;1.98;;;1.00;;
59734;SDS011;64362;45.620;4.920;2023-04-24T00:34:47;1.83;;;1.02;;
59734;SDS011;64362;45.620;4.920;2023-04-24T00:37:13;1.90;;;0.85;;
59734;SDS011;64362;45.620;4.920;2023-04-24T00:39:38;1.40;;;0.90;;
59734;SDS011;64362;45.620;4.920;2023-04-24T00:42:04;1.42;;;0.85;;
59734;SDS011;64362;45.620;4.920;2023-04-24T00:44:32;1.60;;;1.10;;
59734;SDS011;64362;45.620;4.920;2023-04-24T00:46:58;1.90;;;0.82;;
59734;SDS011;64362;45.620;4.920;2023-04-24T00:49:24;1.92;;;0.90;;
59734;SDS011;64362;45.620;4.920;2023-04-24T00:51:50;1.90;;;1.17;;
59734;SDS011;64362;45.620;4.920;2023-04-24T00:54:16;1.35;;;0.85;;
59734;SDS011;64362;45.620;4.920;2023-04-24T00:56:43;1.67;;;0.77;;
59734;SDS011;64362;45.620;4.920;2023-04-24T00:59:09;2.58;;;0.90;;
59734;SDS011;64362;45.620;4.920;2023-04-24T01:01:37;1.30;;;0.90;;
59734;SDS011;64362;45.620;4.920;2023-04-24T01:04:07;1.88;;;0.70;;
59734;SDS011;64362;45.620;4.920;2023-04-24T01:06:33;2.50;;;1.20;;
59734;SDS011;64362;45.620;4.920;2023-04-24T01:08:59;2.13;;;0.98;;
59734;SDS011;64362;45.620;4.920;2023-04-24T01:11:25;1.60;;;0.80;;
59734;SDS011;64362;45.620;4.920;2023-04-24T01:13:51;2.85;;;0.88;;
59734;SDS011;64362;45.620;4.920;2023-04-24T01:16:17;1.55;;;0.70;;
59734;SDS011;64362;45.620;4.920;2023-04-24T01:18:46;2.75;;;1.00;;
59734;SDS011;64362;45.620;4.920;2023-04-24T01:21:13;1.67;;;0.82;;
59734;SDS011;64362;45.620;4.920;2023-04-24T01:23:40;1.88;;;0.95;;
59734;SDS011;64362;45.620;4.920;2023-04-24T01:26:05;2.28;;;1.00;;
59734;SDS011;64362;45.620;4.920;2023-04-24T01:28:31;1.40;;;0.70;;
59734;SDS011;64362;45.620;4.920;2023-04-24T01:30:56;1.40;;;0.80;;
59734;SDS011;64362;45.620;4.920;2023-04-24T01:33:22;1.90;;;0.82;;
59734;SDS011;64362;45.620;4.920;2023-04-24T01:35:48;1.70;;;0.77;;
59734;SDS011;64362;45.620;4.920;2023-04-24T01:38:14;1.88;;;1.00;;
59734;SDS011;64362;45.620;4.920;2023-04-24T01:40:40;1.67;;;0.82;;
59734;SDS011;64362;45.620;4.920;2023-04-24T01:43:05;2.95;;;0.90;;
59734;SDS011;64362;45.620;4.920;2023-04-24T01:45:31;1.50;;;1.02;;
59734;SDS011;64362;45.620;4.920;2023-04-24T01:47:56;2.60;;;1.10;;
59734;SDS011;64362;45.620;4.920;2023-04-24T01:50:23;2.47;;;1.02;;
59734;SDS011;64362;45.620;4.920;2023-04-24T01:52:48;1.95;;;0.90;;
59734;SDS011;64362;45.620;4.920;2023-04-24T01:55:14;2.42;;;1.00;;
59734;SDS011;64362;45.620;4.920;2023-04-24T01:57:39;2.03;;;0.80;;
59734;SDS011;64362;45.620;4.920;2023-04-24T02:00:05;1.58;;;0.93;;
59734;SDS011;64362;45.620;4.920;2023-04-24T02:02:41;1.90;;;1.00;;
59734;SDS011;64362;45.620;4.920;2023-04-24T02:05:07;1.95;;;1.33;;
59734;SDS011;64362;45.620;4.920;2023-04-24T02:07:35;2.63;;;1.10;;
59734;SDS011;64362;45.620;4.920;2023-04-24T02:10:00;2.60;;;1.13;;
59734;SDS011;64362;45.620;4.920;2023-04-24T02:12:26;1.85;;;0.93;;
59734;SDS011;64362;45.620;4.920;2023-04-24T02:14:52;1.45;;;1.00;;
59734;SDS011;64362;45.620;4.920;2023-04-24T02:17:17;1.67;;;0.80;;
59734;SDS011;64362;45.620;4.920;2023-04-24T02:19:44;1.80;;;0.95;;
59734;SDS011;64362;45.620;4.920;2023-04-24T02:22:10;2.00;;;0.80;;
59734;SDS011;64362;45.620;4.920;2023-04-24T02:24:36;1.63;;;0.98;;
59734;SDS011;64362;45.620;4.920;2023-04-24T02:27:02;1.60;;;0.85;;
59734;SDS011;64362;45.620;4.920;2023-04-24T02:29:28;2.05;;;0.75;;
59734;SDS011;64362;45.620;4.920;2023-04-24T02:31:54;2.05;;;0.90;;
59734;SDS011;64362;45.620;4.920;2023-04-24T02:34:19;1.45;;;0.80;;
59734;SDS011;64362;45.620;4.920;2023-04-24T02:36:45;1.83;;;0.90;;
59734;SDS011;64362;45.620;4.920;2023-04-24T02:39:10;1.80;;;0.90;;
59734;SDS011;64362;45.620;4.920;2023-04-24T02:41:38;1.42;;;0.75;;
59734;SDS011;64362;45.620;4.920;2023-04-24T02:44:03;1.50;;;0.80;;
59734;SDS011;64362;45.620;4.920;2023-04-24T02:46:29;1.98;;;0.93;;
59734;SDS011;64362;45.620;4.920;2023-04-24T02:48:55;1.75;;;0.85;;
59734;SDS011;64362;45.620;4.920;2023-04-24T02:51:20;1.40;;;0.75;;
59734;SDS011;64362;45.620;4.920;2023-04-24T02:53:46;1.95;;;0.80;;
59734;SDS011;64362;45.620;4.920;2023-04-24T02:56:11;2.20;;;0.95;;
59734;SDS011;64362;45.620;4.920;2023-04-24T02:58:37;2.63;;;0.90;;
59734;SDS011;64362;45.620;4.920;2023-04-24T03:01:03;1.60;;;0.90;;
59734;SDS011;64362;45.620;4.920;2023-04-24T03:03:29;2.72;;;1.38;;
59734;SDS011;64362;45.620;4.920;2023-04-24T03:05:54;1.27;;;1.00;;
59734;SDS011;64362;45.620;4.920;2023-04-24T03:08:22;1.75;;;1.15;;
59734;SDS011;64362;45.620;4.920;2023-04-24T03:10:47;1.98;;;0.85;;
59734;SDS011;64362;45.620;4.920;2023-04-24T03:13:14;3.13;;;1.05;;
59734;SDS011;64362;45.620;4.920;2023-04-24T03:15:40;1.70;;;1.00;;
59734;SDS011;64362;45.620;4.920;2023-04-24T03:18:06;2.03;;;0.75;;
59734;SDS011;64362;45.620;4.920;2023-04-24T03:20:31;1.67;;;1.00;;
59734;SDS011;64362;45.620;4.920;2023-04-24T03:22:57;1.42;;;0.90;;
59734;SDS011;64362;45.620;4.920;2023-04-24T03:25:23;1.95;;;0.90;;
59734;SDS011;64362;45.620;4.920;2023-04-24T03:27:49;1.67;;;0.77;;
59734;SDS011;64362;45.620;4.920;2023-04-24T03:30:34;1.50;;;0.80;;
59734;SDS011;64362;45.620;4.920;2023-04-24T03:33:01;3.05;;;0.93;;
59734;SDS011;64362;45.620;4.920;2023-04-24T03:35:29;2.15;;;0.82;;
59734;SDS011;64362;45.620;4.920;2023-04-24T03:37:57;1.85;;;0.75;;
59734;SDS011;64362;45.620;4.920;2023-04-24T03:40:38;1.83;;;0.80;;
59734;SDS011;64362;45.620;4.920;2023-04-24T03:43:13;2.85;;;0.93;;
59734;SDS011;64362;45.620;4.920;2023-04-24T03:45:38;1.92;;;0.80;;
59734;SDS011;64362;45.620;4.920;2023-04-24T03:48:04;1.92;;;0.90;;
59734;SDS011;64362;45.620;4.920;2023-04-24T03:50:30;1.70;;;1.00;;
59734;SDS011;64362;45.620;4.920;2023-04-24T03:52:57;1.75;;;1.05;;
59734;SDS011;64362;45.620;4.920;2023-04-24T03:55:33;2.00;;;0.98;;
59734;SDS011;64362;45.620;4.920;2023-04-24T03:57:58;2.45;;;1.10;;
59734;SDS011;64362;45.620;4.920;2023-04-24T04:00:24;1.33;;;0.85;;
59734;SDS011;64362;45.620;4.920;2023-04-24T04:03:04;1.48;;;0.95;;
59734;SDS011;64362;45.620;4.920;2023-04-24T04:05:29;1.70;;;0.82;;
59734;SDS011;64362;45.620;4.920;2023-04-24T04:07:55;1.02;;;0.68;;
59734;SDS011;64362;45.620;4.920;2023-04-24T04:10:21;1.42;;;0.80;;
59734;SDS011;64362;45.620;4.920;2023-04-24T04:12:47;2.08;;;0.98;;
59734;SDS011;64362;45.620;4.920;2023-04-24T04:15:13;1.40;;;0.90;;
59734;SDS011;64362;45.620;4.920;2023-04-24T04:17:39;1.90;;;0.88;;
59734;SDS011;64362;45.620;4.920;2023-04-24T04:20:06;1.55;;;0.85;;
59734;SDS011;64362;45.620;4.920;2023-04-24T04:22:38;2.15;;;0.93;;
59734;SDS011;64362;45.620;4.920;2023-04-24T04:25:06;1.88;;;0.80;;
59734;SDS011;64362;45.620;4.920;2023-04-24T04:27:33;2.28;;;0.75;;
59734;SDS011;64362;45.620;4.920;2023-04-24T04:30:04;2.28;;;1.02;;
59734;SDS011;64362;45.620;4.920;2023-04-24T04:32:36;3.05;;;1.00;;
59734;SDS011;64362;45.620;4.920;2023-04-24T04:35:03;2.30;;;0.90;;
59734;SDS011;64362;45.620;4.920;2023-04-24T04:37:31;2.83;;;0.90;;
59734;SDS011;64362;45.620;4.920;2023-04-24T04:40:10;1.75;;;0.80;;
59734;SDS011;64362;45.620;4.920;2023-04-24T04:42:41;1.80;;;1.00;;
59734;SDS011;64362;45.620;4.920;2023-04-24T04:45:08;1.75;;;0.98;;
59734;SDS011;64362;45.620;4.920;2023-04-24T04:47:48;1.95;;;1.10;;
59734;SDS011;64362;45.620;4.920;2023-04-24T04:50:13;1.40;;;1.05;;
59734;SDS011;64362;45.620;4.920;2023-04-24T04:52:39;2.33;;;1.00;;
59734;SDS011;64362;45.620;4.920;2023-04-24T04:55:21;1.60;;;0.77;;
59734;SDS011;64362;45.620;4.920;2023-04-24T04:58:22;2.17;;;1.05;;
59734;SDS011;64362;45.620;4.920;2023-04-24T05:00:53;2.17;;;0.90;;
59734;SDS011;64362;45.620;4.920;2023-04-24T05:03:26;2.17;;;0.93;;
59734;SDS011;64362;45.620;4.920;2023-04-24T05:05:57;1.83;;;0.98;;
59734;SDS011;64362;45.620;4.920;2023-04-24T05:08:23;1.90;;;1.02;;
59734;SDS011;64362;45.620;4.920;2023-04-24T05:10:49;1.20;;;0.80;;
59734;SDS011;64362;45.620;4.920;2023-04-24T05:13:15;1.73;;;0.90;;
59734;SDS011;64362;45.620;4.920;2023-04-24T05:15:40;3.00;;;0.93;;
59734;SDS011;64362;45.620;4.920;2023-04-24T05:18:06;2.45;;;1.05;;
59734;SDS011;64362;45.620;4.920;2023-04-24T05:20:32;2.00;;;1.08;;
59734;SDS011;64362;45.620;4.920;2023-04-24T05:22:57;1.50;;;0.85;;
59734;SDS011;64362;45.620;4.920;2023-04-24T05:25:24;2.33;;;1.00;;
59734;SDS011;64362;45.620;4.920;2023-04-24T05:27:54;3.30;;;1.10;;
59734;SDS011;64362;45.620;4.920;2023-04-24T05:30:21;4.10;;;1.02;;
59734;SDS011;64362;45.620;4.920;2023-04-24T05:32:48;2.00;;;0.80;;
59734;SDS011;64362;45.620;4.920;2023-04-24T05:35:14;4.45;;;1.10;;
59734;SDS011;64362;45.620;4.920;2023-04-24T05:37:39;2.33;;;1.10;;
59734;SDS011;64362;45.620;4.920;2023-04-24T05:40:05;3.83;;;1.17;;
59734;SDS011;64362;45.620;4.920;2023-04-24T05:42:31;3.53;;;0.95;;
59734;SDS011;64362;45.620;4.920;2023-04-24T05:44:57;3.83;;;1.08;;
59734;SDS011;64362;45.620;4.920;2023-04-24T05:47:22;2.95;;;1.00;;
59734;SDS011;64362;45.620;4.920;2023-04-24T05:49:49;3.08;;;1.10;;
59734;SDS011;64362;45.620;4.920;2023-04-24T05:52:15;4.65;;;1.30;;
59734;SDS011;64362;45.620;4.920;2023-04-24T05:54:41;3.30;;;1.10;;
59734;SDS011;64362;45.620;4.920;2023-04-24T05:57:08;2.50;;;1.02;;
59734;SDS011;64362;45.620;4.920;2023-04-24T05:59:48;2.85;;;1.40;;
59734;SDS011;64362;45.620;4.920;2023-04-24T06:02:14;4.60;;;1.20;;
59734;SDS011;64362;45.620;4.920;2023-04-24T06:04:39;2.50;;;1.05;;
59734;SDS011;64362;45.620;4.920;2023-04-24T06:07:05;4.90;;;1.17;;
59734;SDS011;64362;45.620;4.920;2023-04-24T06:09:32;6.10;;;1.40;;
59734;SDS011;64362;45.620;4.920;2023-04-24T06:11:57;4.72;;;1.42;;
59734;SDS011;64362;45.620;4.920;2023-04-24T06:14:31;2.92;;;1.02;;
59734;SDS011;64362;45.620;4.920;2023-04-24T06:17:23;5.22;;;1.33;;
59734;SDS011;64362;45.620;4.920;2023-04-24T06:19:49;4.05;;;1.23;;
59734;SDS011;64362;45.620;4.920;2023-04-24T06:22:15;3.55;;;1.02;;
59734;SDS011;64362;45.620;4.920;2023-04-24T06:24:40;4.90;;;1.10;;
59734;SDS011;64362;45.620;4.920;2023-04-24T06:27:06;5.40;;;1.42;;
59734;SDS011;64362;45.620;4.920;2023-04-24T06:29:32;6.20;;;1.35;;
59734;SDS011;64362;45.620;4.920;2023-04-24T06:31:58;5.32;;;1.20;;
59734;SDS011;64362;45.620;4.920;2023-04-24T06:34:24;5.75;;;1.30;;
59734;SDS011;64362;45.620;4.920;2023-04-24T06:36:49;4.10;;;1.15;;
59734;SDS011;64362;45.620;4.920;2023-04-24T06:39:14;4.03;;;1.38;;
59734;SDS011;64362;45.620;4.920;2023-04-24T06:41:40;4.22;;;1.23;;
59734;SDS011;64362;45.620;4.920;2023-04-24T06:44:08;4.35;;;1.73;;
59734;SDS011;64362;45.620;4.920;2023-04-24T06:46:33;3.33;;;1.50;;
59734;SDS011;64362;45.620;4.920;2023-04-24T06:49:00;4.28;;;1.60;;
59734;SDS011;64362;45.620;4.920;2023-04-24T06:51:25;4.72;;;1.60;;
59734;SDS011;64362;45.620;4.920;2023-04-24T06:53:54;4.78;;;1.20;;
59734;SDS011;64362;45.620;4.920;2023-04-24T06:56:23;3.85;;;1.20;;
59734;SDS011;64362;45.620;4.920;2023-04-24T06:58:48;2.85;;;1.23;;
59734;SDS011;64362;45.620;4.920;2023-04-24T07:01:14;3.63;;;1.02;;
59734;SDS011;64362;45.620;4.920;2023-04-24T07:03:39;2.58;;;1.15;;
59734;SDS011;64362;45.620;4.920;2023-04-24T07:06:05;3.72;;;1.20;;
59734;SDS011;64362;45.620;4.920;2023-04-24T07:08:31;2.72;;;1.08;;
59734;SDS011;64362;45.620;4.920;2023-04-24T07:10:58;3.58;;;1.20;;
59734;SDS011;64362;45.620;4.920;2023-04-24T07:13:24;2.78;;;1.15;;
59734;SDS011;64362;45.620;4.920;2023-04-24T07:15:49;3.08;;;1.67;;
59734;SDS011;64362;45.620;4.920;2023-04-24T07:18:16;5.25;;;1.35;;
59734;SDS011;64362;45.620;4.920;2023-04-24T07:20:42;4.43;;;1.20;;
59734;SDS011;64362;45.620;4.920;2023-04-24T07:23:07;3.42;;;1.40;;
59734;SDS011;64362;45.620;4.920;2023-04-24T07:25:33;3.80;;;1.10;;
59734;SDS011;64362;45.620;4.920;2023-04-24T07:27:58;2.17;;;1.08;;
59734;SDS011;64362;45.620;4.920;2023-04-24T07:30:24;3.63;;;1.40;;
59734;SDS011;64362;45.620;4.920;2023-04-24T07:32:50;2.25;;;1.00;;
59734;SDS011;64362;45.620;4.920;2023-04-24T07:35:15;2.75;;;1.25;;
59734;SDS011;64362;45.620;4.920;2023-04-24T07:37:41;2.40;;;1.13;;
59734;SDS011;64362;45.620;4.920;2023-04-24T07:40:11;2.25;;;1.33;;
59734;SDS011;64362;45.620;4.920;2023-04-24T07:42:40;3.50;;;1.38;;
59734;SDS011;64362;45.620;4.920;2023-04-24T07:45:05;3.83;;;1.30;;
59734;SDS011;64362;45.620;4.920;2023-04-24T07:47:32;3.38;;;1.35;;
59734;SDS011;64362;45.620;4.920;2023-04-24T07:49:57;2.40;;;1.50;;
59734;SDS011;64362;45.620;4.920;2023-04-24T07:52:24;2.40;;;1.50;;
59734;SDS011;64362;45.620;4.920;2023-04-24T07:54:49;2.03;;;1.02;;
59734;SDS011;64362;45.620;4.920;2023-04-24T07:57:15;2.85;;;1.50;;
59734;SDS011;64362;45.620;4.920;2023-04-24T07:59:41;2.85;;;1.50;;
59734;SDS011;64362;45.620;4.920;2023-04-24T08:02:07;3.33;;;1.70;;
59734;SDS011;64362;45.620;4.920;2023-04-24T08:04:32;2.33;;;1.35;;
59734;SDS011;64362;45.620;4.920;2023-04-24T08:06:58;2.72;;;1.30;;
59734;SDS011;64362;45.620;4.920;2023-04-24T08:09:23;3.25;;;1.50;;
59734;SDS011;64362;45.620;4.920;2023-04-24T08:11:49;2.53;;;1.38;;
59734;SDS011;64362;45.620;4.920;2023-04-24T08:14:14;2.60;;;1.30;;
59734;SDS011;64362;45.620;4.920;2023-04-24T08:16:40;3.78;;;1.63;;
59734;SDS011;64362;45.620;4.920;2023-04-24T08:19:06;2.83;;;1.48;;
59734;SDS011;64362;45.620;4.920;2023-04-24T08:21:31;2.10;;;1.17;;
59734;SDS011;64362;45.620;4.920;2023-04-24T08:23:57;3.17;;;1.40;;
59734;SDS011;64362;45.620;4.920;2023-04-24T08:26:23;2.58;;;1.38;;
59734;SDS011;64362;45.620;4.920;2023-04-24T08:28:48;3.03;;;1.42;;
59734;SDS011;64362;45.620;4.920;2023-04-24T08:31:14;3.15;;;1.35;;
59734;SDS011;64362;45.620;4.920;2023-04-24T08:33:40;2.63;;;1.70;;
59734;SDS011;64362;45.620;4.920;2023-04-24T08:36:06;2.53;;;1.67;;
59734;SDS011;64362;45.620;4.920;2023-04-24T08:38:32;2.85;;;1.42;;
59734;SDS011;64362;45.620;4.920;2023-04-24T08:40:59;4.05;;;1.58;;
59734;SDS011;64362;45.620;4.920;2023-04-24T08:43:25;2.13;;;1.60;;
59734;SDS011;64362;45.620;4.920;2023-04-24T08:45:51;2.63;;;1.48;;
59734;SDS011;64362;45.620;4.920;2023-04-24T08:48:17;3.22;;;1.50;;
59734;SDS011;64362;45.620;4.920;2023-04-24T08:50:43;2.95;;;1.48;;
59734;SDS011;64362;45.620;4.920;2023-04-24T08:53:09;3.72;;;1.80;;
59734;SDS011;64362;45.620;4.920;2023-04-24T08:55:35;3.50;;;1.83;;
59734;SDS011;64362;45.620;4.920;2023-04-24T08:58:01;2.47;;;1.60;;
59734;SDS011;64362;45.620;4.920;2023-04-24T09:00:27;2.38;;;1.50;;
59734;SDS011;64362;45.620;4.920;2023-04-24T09:02:53;2.10;;;1.50;;
59734;SDS011;64362;45.620;4.920;2023-04-24T09:05:19;2.00;;;1.48;;
59734;SDS011;64362;45.620;4.920;2023-04-24T09:07:48;2.50;;;1.67;;
59734;SDS011;64362;45.620;4.920;2023-04-24T09:10:15;3.20;;;1.88;;
59734;SDS011;64362;45.620;4.920;2023-04-24T09:12:41;3.42;;;1.70;;
59734;SDS011;64362;45.620;4.920;2023-04-24T09:15:07;2.38;;;1.70;;
59734;SDS011;64362;45.620;4.920;2023-04-24T09:17:33;3.00;;;1.50;;
59734;SDS011;64362;45.620;4.920;2023-04-24T09:20:00;2.53;;;1.73;;
59734;SDS011;64362;45.620;4.920;2023-04-24T09:22:28;2.58;;;1.48;;
59734;SDS011;64362;45.620;4.920;2023-04-24T09:25:07;2.53;;;1.73;;
59734;SDS011;64362;45.620;4.920;2023-04-24T09:27:34;2.90;;;1.58;;
59734;SDS011;64362;45.620;4.920;2023-04-24T09:30:00;2.80;;;1.80;;
59734;SDS011;64362;45.620;4.920;2023-04-24T09:32:26;2.60;;;1.65;;
59734;SDS011;64362;45.620;4.920;2023-04-24T09:35:10;2.63;;;1.60;;
59734;SDS011;64362;45.620;4.920;2023-04-24T09:37:43;2.72;;;1.73;;
59734;SDS011;64362;45.620;4.920;2023-04-24T09:42:37;2.30;;;1.52;;
59734;SDS011;64362;45.620;4.920;2023-04-24T09:45:02;2.42;;;1.52;;
59734;SDS011;64362;45.620;4.920;2023-04-24T09:47:35;2.50;;;1.60;;
59734;SDS011;64362;45.620;4.920;2023-04-24T09:50:08;2.03;;;1.40;;
59734;SDS011;64362;45.620;4.920;2023-04-24T09:52:42;2.25;;;1.70;;
59734;SDS011;64362;45.620;4.920;2023-04-24T09:55:13;3.10;;;1.67;;
59734;SDS011;64362;45.620;4.920;2023-04-24T09:57:54;2.75;;;1.40;;
59734;SDS011;64362;45.620;4.920;2023-04-24T10:00:25;2.60;;;1.70;;
59734;SDS011;64362;45.620;4.920;2023-04-24T10:02:55;2.47;;;1.70;;
59734;SDS011;64362;45.620;4.920;2023-04-24T10:05:26;3.38;;;1.67;;
59734;SDS011;64362;45.620;4.920;2023-04-24T10:07:55;3.28;;;1.80;;
59734;SDS011;64362;45.620;4.920;2023-04-24T10:10:22;2.78;;;1.75;;
59734;SDS011;64362;45.620;4.920;2023-04-24T10:12:48;3.40;;;1.92;;
59734;SDS011;64362;45.620;4.920;2023-04-24T10:15:14;3.30;;;1.90;;
59734;SDS011;64362;45.620;4.920;2023-04-24T10:17:40;2.17;;;1.58;;
59734;SDS011;64362;45.620;4.920;2023-04-24T10:20:06;3.25;;;1.92;;
59734;SDS011;64362;45.620;4.920;2023-04-24T10:22:32;3.08;;;1.98;;
59734;SDS011;64362;45.620;4.920;2023-04-24T10:24:58;2.25;;;1.60;;
59734;SDS011;64362;45.620;4.920;2023-04-24T10:27:24;3.13;;;1.50;;
59734;SDS011;64362;45.620;4.920;2023-04-24T10:29:52;2.97;;;1.70;;
59734;SDS011;64362;45.620;4.920;2023-04-24T10:32:18;4.82;;;2.00;;
59734;SDS011;64362;45.620;4.920;2023-04-24T10:34:44;2.90;;;1.90;;
59734;SDS011;64362;45.620;4.920;2023-04-24T10:37:09;3.15;;;1.65;;
59734;SDS011;64362;45.620;4.920;2023-04-24T10:39:35;2.47;;;1.58;;
59734;SDS011;64362;45.620;4.920;2023-04-24T10:42:13;3.83;;;1.90;;
59734;SDS011;64362;45.620;4.920;2023-04-24T10:44:40;2.90;;;1.70;;
59734;SDS011;64362;45.620;4.920;2023-04-24T10:47:06;3.45;;;1.67;;
59734;SDS011;64362;45.620;4.920;2023-04-24T10:49:38;3.03;;;1.95;;
59734;SDS011;64362;45.620;4.920;2023-04-24T10:52:04;2.78;;;1.83;;
59734;SDS011;64362;45.620;4.920;2023-04-24T10:59:45;3.58;;;2.00;;
59734;SDS011;64362;45.620;4.920;2023-04-24T11:02:14;3.28;;;1.95;;
59734;SDS011;64362;45.620;4.920;2023-04-24T11:04:40;3.80;;;1.85;;
59734;SDS011;64362;45.620;4.920;2023-04-24T11:07:06;3.45;;;1.77;;
59734;SDS011;64362;45.620;4.920;2023-04-24T11:09:31;3.72;;;1.85;;
59734;SDS011;64362;45.620;4.920;2023-04-24T11:12:07;3.25;;;2.03;;
59734;SDS011;64362;45.620;4.920;2023-04-24T11:17:30;2.95;;;1.90;;
59734;SDS011;64362;45.620;4.920;2023-04-24T11:20:10;2.70;;;1.70;;
59734;SDS011;64362;45.620;4.920;2023-04-24T11:22:37;2.85;;;2.13;;
59734;SDS011;64362;45.620;4.920;2023-04-24T11:25:05;2.75;;;1.80;;
59734;SDS011;64362;45.620;4.920;2023-04-24T11:27:41;2.80;;;2.20;;
59734;SDS011;64362;45.620;4.920;2023-04-24T11:30:08;3.15;;;1.85;;
59734;SDS011;64362;45.620;4.920;2023-04-24T11:35:14;2.67;;;1.85;;
59734;SDS011;64362;45.620;4.920;2023-04-24T11:37:42;3.60;;;1.75;;
59734;SDS011;64362;45.620;4.920;2023-04-24T11:40:11;2.60;;;1.80;;
59734;SDS011;64362;45.620;4.920;2023-04-24T11:42:38;3.25;;;2.00;;
59734;SDS011;64362;45.620;4.920;2023-04-24T11:47:34;3.05;;;1.83;;
59734;SDS011;64362;45.620;4.920;2023-04-24T11:50:00;3.03;;;1.92;;
59734;SDS011;64362;45.620;4.920;2023-04-24T11:52:26;4.55;;;2.38;;
59734;SDS011;64362;45.620;4.920;2023-04-24T11:54:52;3.00;;;1.98;;
59734;SDS011;64362;45.620;4.920;2023-04-24T11:57:24;3.65;;;1.70;;
59734;SDS011;64362;45.620;4.920;2023-04-24T11:59:53;3.53;;;1.95;;
59734;SDS011;64362;45.620;4.920;2023-04-24T12:02:25;2.95;;;1.73;;
59734;SDS011;64362;45.620;4.920;2023-04-24T12:04:55;3.58;;;2.03;;
59734;SDS011;64362;45.620;4.920;2023-04-24T12:07:21;4.03;;;2.28;;
59734;SDS011;64362;45.620;4.920;2023-04-24T12:09:49;2.90;;;2.10;;
59734;SDS011;64362;45.620;4.920;2023-04-24T12:12:20;2.78;;;1.92;;
59734;SDS011;64362;45.620;4.920;2023-04-24T12:14:54;3.60;;;1.80;;
59734;SDS011;64362;45.620;4.920;2023-04-24T12:17:24;3.58;;;2.00;;
59734;SDS011;64362;45.620;4.920;2023-04-24T12:19:52;2.95;;;2.15;;
59734;SDS011;64362;45.620;4.920;2023-04-24T12:22:18;3.53;;;2.28;;
59734;SDS011;64362;45.620;4.920;2023-04-24T12:27:32;2.92;;;2.05;;
59734;SDS011;64362;45.620;4.920;2023-04-24T12:30:02;2.90;;;2.20;;
59734;SDS011;64362;45.620;4.920;2023-04-24T12:32:29;2.92;;;2.08;;
59734;SDS011;64362;45.620;4.920;2023-04-24T12:34:55;2.53;;;1.80;;
59734;SDS011;64362;45.620;4.920;2023-04-24T12:37:22;2.80;;;1.92;;
59734;SDS011;64362;45.620;4.920;2023-04-24T12:40:07;2.97;;;2.17;;
59734;SDS011;64362;45.620;4.920;2023-04-24T12:42:41;3.00;;;2.10;;
59734;SDS011;64362;45.620;4.920;2023-04-24T12:45:11;3.10;;;1.90;;
59734;SDS011;64362;45.620;4.920;2023-04-24T12:47:37;3.10;;;2.05;;
59734;SDS011;64362;45.620;4.920;2023-04-24T12:50:04;2.65;;;1.98;;
59734;SDS011;64362;45.620;4.920;2023-04-24T12:52:31;3.72;;;2.10;;
59734;SDS011;64362;45.620;4.920;2023-04-24T12:54:57;2.53;;;1.85;;
59734;SDS011;64362;45.620;4.920;2023-04-24T12:57:24;3.17;;;2.00;;
59734;SDS011;64362;45.620;4.920;2023-04-24T12:59:50;3.22;;;2.00;;
59734;SDS011;64362;45.620;4.920;2023-04-24T13:02:16;2.42;;;2.03;;
59734;SDS011;64362;45.620;4.920;2023-04-24T13:04:47;3.95;;;2.05;;
59734;SDS011;64362;45.620;4.920;2023-04-24T13:07:13;4.30;;;2.30;;
59734;SDS011;64362;45.620;4.920;2023-04-24T13:09:40;3.67;;;1.90;;
59734;SDS011;64362;45.620;4.920;2023-04-24T13:12:06;3.38;;;1.90;;
59734;SDS011;64362;45.620;4.920;2023-04-24T13:14:32;2.78;;;1.80;;
59734;SDS011;64362;45.620;4.920;2023-04-24T13:16:58;3.47;;;1.90;;
59734;SDS011;64362;45.620;4.920;2023-04-24T13:19:26;3.65;;;2.10;;
59734;SDS011;64362;45.620;4.920;2023-04-24T13:21:54;2.50;;;2.10;;
59734;SDS011;64362;45.620;4.920;2023-04-24T13:24:21;3.00;;;1.92;;
59734;SDS011;64362;45.620;4.920;2023-04-24T13:26:51;3.90;;;2.13;;
59734;SDS011;64362;45.620;4.920;2023-04-24T13:29:21;4.43;;;3.10;;
59734;SDS011;64362;45.620;4.920;2023-04-24T13:31:49;2.80;;;1.83;;
59734;SDS011;64362;45.620;4.920;2023-04-24T13:34:15;2.65;;;1.83;;
59734;SDS011;64362;45.620;4.920;2023-04-24T13:36:43;3.33;;;2.10;;
59734;SDS011;64362;45.620;4.920;2023-04-24T13:39:08;2.38;;;1.85;;
59734;SDS011;64362;45.620;4.920;2023-04-24T13:41:34;2.17;;;1.85;;
59734;SDS011;64362;45.620;4.920;2023-04-24T13:44:01;2.83;;;2.00;;
59734;SDS011;64362;45.620;4.920;2023-04-24T13:46:27;2.15;;;1.63;;
59734;SDS011;64362;45.620;4.920;2023-04-24T13:48:53;3.33;;;1.90;;
59734;SDS011;64362;45.620;4.920;2023-04-24T13:51:18;3.60;;;1.90;;
59734;SDS011;64362;45.620;4.920;2023-04-24T13:53:44;3.55;;;1.67;;
59734;SDS011;64362;45.620;4.920;2023-04-24T13:56:09;3.10;;;2.20;;
59734;SDS011;64362;45.620;4.920;2023-04-24T13:58:35;4.22;;;2.08;;
59734;SDS011;64362;45.620;4.920;2023-04-24T14:01:02;2.80;;;2.00;;
59734;SDS011;64362;45.620;4.920;2023-04-24T14:03:28;3.10;;;1.98;;
59734;SDS011;64362;45.620;4.920;2023-04-24T14:05:54;4.80;;;2.50;;
59734;SDS011;64362;45.620;4.920;2023-04-24T14:08:19;3.90;;;2.00;;
59734;SDS011;64362;45.620;4.920;2023-04-24T14:10:44;2.58;;;1.90;;
59734;SDS011;64362;45.620;4.920;2023-04-24T14:13:10;4.13;;;2.00;;
59734;SDS011;64362;45.620;4.920;2023-04-24T14:15:36;3.78;;;1.75;;
59734;SDS011;64362;45.620;4.920;2023-04-24T14:18:01;3.08;;;2.10;;
59734;SDS011;64362;45.620;4.920;2023-04-24T14:20:28;4.00;;;2.05;;
59734;SDS011;64362;45.620;4.920;2023-04-24T14:22:53;3.20;;;2.10;;
59734;SDS011;64362;45.620;4.920;2023-04-24T14:25:19;2.42;;;1.88;;
59734;SDS011;64362;45.620;4.920;2023-04-24T14:27:44;2.67;;;2.15;;
59734;SDS011;64362;45.620;4.920;2023-04-24T14:30:10;2.72;;;2.00;;
59734;SDS011;64362;45.620;4.920;2023-04-24T14:32:38;3.10;;;2.00;;
59734;SDS011;64362;45.620;4.920;2023-04-24T14:35:04;3.45;;;1.73;;
59734;SDS011;64362;45.620;4.920;2023-04-24T14:37:30;3.75;;;2.13;;
59734;SDS011;64362;45.620;4.920;2023-04-24T14:39:56;4.18;;;1.85;;
59734;SDS011;64362;45.620;4.920;2023-04-24T14:42:21;3.75;;;1.90;;
59734;SDS011;64362;45.620;4.920;2023-04-24T14:44:47;3.22;;;2.15;;
59734;SDS011;64362;45.620;4.920;2023-04-24T14:47:12;2.85;;;1.98;;
59734;SDS011;64362;45.620;4.920;2023-04-24T14:49:37;2.78;;;2.00;;
59734;SDS011;64362;45.620;4.920;2023-04-24T14:52:03;5.28;;;2.22;;
59734;SDS011;64362;45.620;4.920;2023-04-24T14:54:28;3.45;;;2.03;;
59734;SDS011;64362;45.620;4.920;2023-04-24T14:56:54;2.90;;;1.88;;
59734;SDS011;64362;45.620;4.920;2023-04-24T14:59:21;3.60;;;1.92;;
59734;SDS011;64362;45.620;4.920;2023-04-24T15:01:47;4.88;;;1.95;;
59734;SDS011;64362;45.620;4.920;2023-04-24T15:04:13;3.83;;;2.05;;
59734;SDS011;64362;45.620;4.920;2023-04-24T15:06:38;3.78;;;2.22;;